Flight Track Log - Related Links

Times and Time Zones

All times are in EDT time to prevent confusion due to time zone crossing. See the CSN6840 flight status page for this flight to view local times or setup timezone preferences in your user account.


Time Position Orientation Groundspeed Altitude Reporting Facility
EDT Latitude Longitude Course Direction KTS MPH feet Rate Location/Type
Sat 02:45:00 AM 41.8260 83.1932 55° Northeast  Level Estimated
Sat 02:46:00 AM 41.9337 83.4002 55° Northeast  Level Estimated
Sat 02:47:00 AM 42.0409 83.6078 55° Northeast  Level Estimated
Sat 02:48:00 AM 42.1478 83.8162 55° Northeast  Level Estimated
Sat 02:49:00 AM 42.2542 84.0253 55° Northeast  Level Estimated
Sat 02:50:00 AM 42.3603 84.2350 56° Northeast  Level Estimated
Sat 02:51:00 AM 42.4660 84.4455 56° Northeast  Level Estimated
Sat 02:52:00 AM 42.5714 84.6567 56° Northeast  Level Estimated
Sat 02:53:00 AM 42.6763 84.8686 56° Northeast  Level Estimated
Sat 02:54:00 AM 42.7809 85.0812 56° Northeast  Level Estimated
Sat 02:55:00 AM 42.8850 85.2946 56° Northeast  Level Estimated
Sat 02:56:00 AM 42.9888 85.5086 56° Northeast  Level Estimated
Sat 02:57:00 AM 43.0922 85.7234 57° Northeast  Level Estimated
Sat 02:58:00 AM 43.1951 85.9389 57° Northeast  Level Estimated
Sat 02:59:00 AM 43.2976 86.1552 57° Northeast  Level Estimated
Sat 03:00:00 AM 43.3998 86.3721 57° Northeast  Level Estimated
Sat 03:01:00 AM 43.5015 86.5898 57° Northeast  Level Estimated
Sat 03:02:00 AM 43.6028 86.8082 57° Northeast  Level Estimated
Sat 03:03:00 AM 43.7037 87.0274 57° Northeast  Level Estimated
Sat 03:04:00 AM 43.8042 87.2473 58° Northeast  Level Estimated
Sat 03:05:00 AM 43.9043 87.4679 58° Northeast  Level Estimated

Login

Don't have an account? Register now (free) for customized features, flight alerts, and more!